createdAt,value
2018-05-29T00:00:05.369Z,20.10
2018-05-29T00:01:05.283Z,20.20
2018-05-29T00:02:06.254Z,20.10
2018-05-29T00:03:05.672Z,20.10
2018-05-29T00:04:05.632Z,20.20
2018-05-29T00:05:08.550Z,20.20
2018-05-29T00:06:07.688Z,20.20
2018-05-29T00:07:05.121Z,20.20
2018-05-29T00:08:05.318Z,20.20
2018-05-29T00:09:06.166Z,20.20
2018-05-29T00:10:05.744Z,20.20
2018-05-29T00:11:11.245Z,20.20
2018-05-29T00:12:06.601Z,20.20
2018-05-29T00:13:05.454Z,20.20
2018-05-29T00:14:10.794Z,20.30
2018-05-29T00:15:06.493Z,20.20
2018-05-29T00:16:06.025Z,20.30
2018-05-29T00:17:10.957Z,20.20
2018-05-29T00:18:05.572Z,20.20
2018-05-29T00:19:08.665Z,20.20
2018-05-29T00:20:10.488Z,20.20
2018-05-29T00:21:12.103Z,20.20
2018-05-29T00:22:05.664Z,20.20
2018-05-29T00:23:05.720Z,20.20
2018-05-29T00:24:06.034Z,20.20
2018-05-29T00:25:07.728Z,20.20
2018-05-29T00:26:05.385Z,20.20
2018-05-29T00:27:06.297Z,20.20
2018-05-29T00:28:11.132Z,20.30
2018-05-29T00:29:08.205Z,20.30
2018-05-29T00:30:05.822Z,20.20
2018-05-29T00:31:10.981Z,20.20
2018-05-29T00:32:08.209Z,20.20
2018-05-29T00:33:06.188Z,20.20
2018-05-29T00:34:05.789Z,20.20
2018-05-29T00:35:11.122Z,20.20
2018-05-29T00:36:05.642Z,20.20
2018-05-29T00:37:11.014Z,20.20
2018-05-29T00:38:10.629Z,20.20
2018-05-29T00:39:08.753Z,20.20
2018-05-29T00:40:08.667Z,20.20
2018-05-29T00:41:10.199Z,20.20
2018-05-29T00:42:06.071Z,20.10
2018-05-29T00:43:05.564Z,20.20
2018-05-29T00:44:06.028Z,20.10
2018-05-29T00:45:05.363Z,20.10
2018-05-29T00:46:05.267Z,20.10
2018-05-29T00:47:14.084Z,20.10
2018-05-29T00:48:05.787Z,20.10
2018-05-29T00:49:05.857Z,20.10
2018-05-29T00:50:10.872Z,20.10
2018-05-29T00:51:11.077Z,20.10
2018-05-29T00:52:10.702Z,20.10
2018-05-29T00:53:05.173Z,20.10
2018-05-29T00:54:08.673Z,20.10
2018-05-29T00:55:05.137Z,20.10
2018-05-29T00:56:11.257Z,20.10
2018-05-29T00:57:05.911Z,20.10
2018-05-29T00:58:08.438Z,20.10
2018-05-29T00:59:05.957Z,20.10
2018-05-29T01:00:05.703Z,20.10
2018-05-29T01:01:05.987Z,20.10
2018-05-29T01:02:10.835Z,20.10
2018-05-29T01:03:06.257Z,20.10
2018-05-29T01:04:05.445Z,20.00
2018-05-29T01:05:05.748Z,20.00
2018-05-29T01:06:05.681Z,20.00
2018-05-29T01:07:08.930Z,20.00
2018-05-29T01:08:05.608Z,19.90
2018-05-29T01:09:10.246Z,20.00
2018-05-29T01:10:05.918Z,19.90
2018-05-29T01:11:08.723Z,19.90
2018-05-29T01:12:05.255Z,19.90
2018-05-29T01:13:06.216Z,19.90
2018-05-29T01:14:10.788Z,19.90
2018-05-29T01:15:05.339Z,19.90
2018-05-29T01:16:08.600Z,19.80
2018-05-29T01:17:09.564Z,19.80
2018-05-29T01:18:11.091Z,19.80
2018-05-29T01:19:05.517Z,19.80
2018-05-29T01:20:09.285Z,19.80
2018-05-29T01:21:05.811Z,19.80
2018-05-29T01:22:05.234Z,19.80
2018-05-29T01:23:08.329Z,19.70
2018-05-29T01:24:06.316Z,19.80
2018-05-29T01:25:10.023Z,19.70
2018-05-29T01:26:11.355Z,19.70
2018-05-29T01:27:05.849Z,19.70
2018-05-29T01:28:06.130Z,19.70
2018-05-29T01:29:10.729Z,19.70
2018-05-29T01:30:05.661Z,19.70
2018-05-29T01:31:08.596Z,19.60
2018-05-29T01:32:05.432Z,19.60
2018-05-29T01:33:05.505Z,19.60
2018-05-29T01:34:08.864Z,19.60
2018-05-29T01:35:05.481Z,19.60
2018-05-29T01:36:05.536Z,19.60
2018-05-29T01:37:11.286Z,19.60
2018-05-29T01:38:05.849Z,19.60
2018-05-29T01:39:05.944Z,19.60
2018-05-29T01:40:05.213Z,19.60
2018-05-29T01:41:06.344Z,19.60
2018-05-29T01:42:05.676Z,19.60
2018-05-29T01:43:06.018Z,19.60
2018-05-29T01:44:09.147Z,19.50
2018-05-29T01:45:05.748Z,19.50
2018-05-29T01:46:05.155Z,19.50
2018-05-29T01:47:05.709Z,19.50
2018-05-29T01:48:05.188Z,19.50
2018-05-29T01:49:06.257Z,19.50
2018-05-29T01:50:05.275Z,19.50
2018-05-29T01:51:05.338Z,19.50
2018-05-29T01:52:05.610Z,19.50
2018-05-29T01:53:05.355Z,19.50
2018-05-29T01:54:05.625Z,19.40
2018-05-29T01:55:10.146Z,19.40
2018-05-29T01:56:10.601Z,19.40
2018-05-29T01:57:08.713Z,19.40
2018-05-29T01:58:05.221Z,19.40
2018-05-29T01:59:08.931Z,19.40
2018-05-29T02:00:05.523Z,19.40
2018-05-29T02:01:07.643Z,19.40
2018-05-29T02:02:05.371Z,19.40
2018-05-29T02:03:06.061Z,19.40
2018-05-29T02:04:05.928Z,19.40
2018-05-29T02:05:12.925Z,19.40
2018-05-29T02:06:05.551Z,19.40
2018-05-29T02:07:05.497Z,19.30
2018-05-29T02:08:09.587Z,19.30
2018-05-29T02:09:08.680Z,19.30
2018-05-29T02:10:07.773Z,19.30
2018-05-29T02:11:07.835Z,19.30
2018-05-29T02:12:05.461Z,19.30
2018-05-29T02:13:05.562Z,19.30
2018-05-29T02:14:06.204Z,19.30
2018-05-29T02:15:06.044Z,19.30
2018-05-29T02:16:13.220Z,19.20
2018-05-29T02:17:05.694Z,19.20
2018-05-29T02:18:05.362Z,19.30
2018-05-29T02:19:07.725Z,19.30
2018-05-29T02:20:05.296Z,19.30
2018-05-29T02:21:10.352Z,19.20
2018-05-29T02:22:05.872Z,19.30
2018-05-29T02:23:09.243Z,19.30
2018-05-29T02:24:05.940Z,19.20
2018-05-29T02:25:08.935Z,19.20
2018-05-29T02:26:08.125Z,19.20
2018-05-29T02:27:06.282Z,19.20
2018-05-29T02:28:09.646Z,19.20
2018-05-29T02:29:08.656Z,19.10
2018-05-29T02:30:10.348Z,19.10
2018-05-29T02:31:10.881Z,19.10
2018-05-29T02:32:05.373Z,6.30
2018-05-29T02:33:06.092Z,19.10
2018-05-29T02:34:06.009Z,19.10
2018-05-29T02:35:08.502Z,19.00
2018-05-29T02:36:07.058Z,19.00
2018-05-29T02:37:10.960Z,19.00
2018-05-29T02:38:05.497Z,19.00
2018-05-29T02:39:08.684Z,19.00
2018-05-29T02:40:05.591Z,18.90
2018-05-29T02:41:05.897Z,18.90
2018-05-29T02:42:09.557Z,18.80
2018-05-29T02:43:06.110Z,18.80
2018-05-29T02:44:05.449Z,18.90
2018-05-29T02:45:06.107Z,18.80
2018-05-29T02:46:05.247Z,18.80
2018-05-29T02:47:08.812Z,18.80
2018-05-29T02:48:05.498Z,18.80
2018-05-29T02:49:06.686Z,18.80
2018-05-29T02:50:08.748Z,18.70
2018-05-29T02:51:11.423Z,18.70
2018-05-29T02:52:08.713Z,18.70
2018-05-29T02:53:05.344Z,18.70
2018-05-29T02:54:06.111Z,18.70
2018-05-29T02:55:06.174Z,18.70
2018-05-29T02:56:08.826Z,18.70
2018-05-29T02:57:05.496Z,18.70
2018-05-29T02:58:05.701Z,18.60
2018-05-29T02:59:08.803Z,18.60
2018-05-29T03:00:08.447Z,18.60
2018-05-29T03:01:06.036Z,18.60
2018-05-29T03:02:09.436Z,18.60
2018-05-29T03:03:10.991Z,18.60
2018-05-29T03:04:09.372Z,18.50
2018-05-29T03:05:09.225Z,18.50
2018-05-29T03:06:05.764Z,18.50
2018-05-29T03:07:08.892Z,18.50
2018-05-29T03:08:10.036Z,18.50
2018-05-29T03:09:05.547Z,18.50
2018-05-29T03:10:05.684Z,18.50
2018-05-29T03:11:05.308Z,18.50
2018-05-29T03:12:10.741Z,18.40
2018-05-29T03:13:10.969Z,18.40
2018-05-29T03:14:08.771Z,18.40
2018-05-29T03:15:05.752Z,18.40
2018-05-29T03:16:09.769Z,18.40
2018-05-29T03:17:05.604Z,18.40
2018-05-29T03:18:05.629Z,18.40
2018-05-29T03:19:05.768Z,18.30
2018-05-29T03:20:05.407Z,18.40
2018-05-29T03:21:08.438Z,18.40
2018-05-29T03:22:06.264Z,18.40
2018-05-29T03:23:05.834Z,18.40
2018-05-29T03:24:05.575Z,18.40
2018-05-29T03:25:05.637Z,18.40
2018-05-29T03:26:05.450Z,18.40
2018-05-29T03:27:05.595Z,18.40
2018-05-29T03:28:05.865Z,18.40
2018-05-29T03:29:05.904Z,18.40
2018-05-29T03:30:07.900Z,18.30
2018-05-29T03:31:06.019Z,18.30
2018-05-29T03:32:11.004Z,18.30
2018-05-29T03:33:08.761Z,18.20
2018-05-29T03:34:05.366Z,18.20
2018-05-29T03:35:08.502Z,18.20
2018-05-29T03:36:14.511Z,18.20
2018-05-29T03:37:09.212Z,18.20
2018-05-29T03:38:06.222Z,18.20
2018-05-29T03:39:09.903Z,18.10
2018-05-29T03:40:05.509Z,18.10
2018-05-29T03:41:07.859Z,18.10
2018-05-29T03:42:08.938Z,18.10
2018-05-29T03:43:09.295Z,18.10
2018-05-29T03:44:09.015Z,18.10
2018-05-29T03:45:05.636Z,18.10
2018-05-29T03:46:05.951Z,18.10
2018-05-29T03:47:05.994Z,18.10
2018-05-29T03:48:10.740Z,18.10
2018-05-29T03:49:10.832Z,18.10
2018-05-29T03:50:08.367Z,18.10
2018-05-29T03:51:06.442Z,18.10
2018-05-29T03:52:11.275Z,18.10
2018-05-29T03:53:10.867Z,18.10
2018-05-29T03:54:05.445Z,18.20
2018-05-29T03:55:06.124Z,18.20
2018-05-29T03:56:07.702Z,18.40
2018-05-29T03:57:09.290Z,18.40
2018-05-29T03:58:10.830Z,18.50
2018-05-29T03:59:06.306Z,18.50
2018-05-29T04:00:06.121Z,18.70
2018-05-29T04:01:07.294Z,18.70
2018-05-29T04:02:05.522Z,18.80
2018-05-29T04:03:05.796Z,18.90
2018-05-29T04:04:05.578Z,19.00
2018-05-29T04:05:06.084Z,19.10
2018-05-29T04:06:08.682Z,19.30
2018-05-29T04:07:05.170Z,19.30
2018-05-29T04:08:06.120Z,19.40
2018-05-29T04:09:05.876Z,19.60
2018-05-29T04:10:06.243Z,19.60
2018-05-29T04:11:06.383Z,19.70
2018-05-29T04:12:05.814Z,19.80
2018-05-29T04:13:12.810Z,20.00
2018-05-29T04:14:08.570Z,20.10
2018-05-29T04:15:06.135Z,20.10
2018-05-29T04:16:06.955Z,20.20
2018-05-29T04:17:05.857Z,20.30
2018-05-29T04:18:05.172Z,20.40
2018-05-29T04:19:08.705Z,20.50
2018-05-29T04:20:09.150Z,20.70
2018-05-29T04:21:05.804Z,20.70
2018-05-29T04:22:05.891Z,20.80
2018-05-29T04:23:09.192Z,20.90
2018-05-29T04:24:05.698Z,21.00
2018-05-29T04:25:06.187Z,21.00
2018-05-29T04:26:05.564Z,21.20
2018-05-29T04:27:05.501Z,21.30
2018-05-29T04:28:06.283Z,21.40
2018-05-29T04:29:05.434Z,21.50
2018-05-29T04:30:05.233Z,21.60
2018-05-29T04:31:05.886Z,21.70
2018-05-29T04:32:06.018Z,21.70
2018-05-29T04:33:05.977Z,21.80
2018-05-29T04:34:10.723Z,21.80
2018-05-29T04:35:05.498Z,21.90
2018-05-29T04:36:05.296Z,21.90
2018-05-29T04:37:06.194Z,21.90
2018-05-29T04:38:05.671Z,21.90
2018-05-29T04:39:06.658Z,21.90
2018-05-29T04:40:10.391Z,22.00
2018-05-29T04:41:05.976Z,22.00
2018-05-29T04:42:06.082Z,22.10
2018-05-29T04:43:06.190Z,22.10
2018-05-29T04:44:05.910Z,22.10
2018-05-29T04:45:09.917Z,22.20
2018-05-29T04:46:08.976Z,22.20
2018-05-29T04:47:05.693Z,22.20
2018-05-29T04:48:05.588Z,22.20
2018-05-29T04:49:05.569Z,22.20
2018-05-29T04:50:05.506Z,22.20
2018-05-29T04:51:06.025Z,22.20
2018-05-29T04:52:07.827Z,22.20
2018-05-29T04:53:05.453Z,22.20
2018-05-29T04:54:10.398Z,22.30
2018-05-29T04:55:10.998Z,22.30
2018-05-29T04:56:05.216Z,22.30
2018-05-29T04:57:05.849Z,22.30
2018-05-29T04:58:10.364Z,22.30
2018-05-29T04:59:05.606Z,22.30
2018-05-29T05:00:09.536Z,22.40
2018-05-29T05:01:08.731Z,22.50
2018-05-29T05:02:08.099Z,22.60
2018-05-29T05:03:09.715Z,22.60
2018-05-29T05:04:05.340Z,22.60
2018-05-29T05:05:08.246Z,22.70
2018-05-29T05:06:08.950Z,22.80
2018-05-29T05:07:05.573Z,22.80
2018-05-29T05:08:05.785Z,22.80
2018-05-29T05:09:10.575Z,22.90
2018-05-29T05:10:08.772Z,22.90
2018-05-29T05:11:05.936Z,22.90
2018-05-29T05:12:06.069Z,23.00
2018-05-29T05:13:05.991Z,23.00
2018-05-29T05:14:06.207Z,23.10
2018-05-29T05:15:05.625Z,23.20
2018-05-29T05:16:05.496Z,23.10
2018-05-29T05:17:08.340Z,23.30
2018-05-29T05:18:09.198Z,23.30
2018-05-29T05:19:05.821Z,23.30
2018-05-29T05:20:05.393Z,23.30
2018-05-29T05:21:05.674Z,23.40
2018-05-29T05:22:07.682Z,23.50
2018-05-29T05:23:05.221Z,23.50
2018-05-29T05:24:08.944Z,23.60
2018-05-29T05:25:09.289Z,23.70
2018-05-29T05:26:05.792Z,23.60
2018-05-29T05:27:05.674Z,23.70
2018-05-29T05:28:05.784Z,23.80
2018-05-29T05:29:06.009Z,23.80
2018-05-29T05:30:10.983Z,23.90
2018-05-29T05:31:08.500Z,24.00
2018-05-29T05:32:05.438Z,23.90
2018-05-29T05:33:07.824Z,24.00
2018-05-29T05:34:05.370Z,24.00
2018-05-29T05:35:15.357Z,24.00
2018-05-29T05:36:05.809Z,24.10
2018-05-29T05:37:07.823Z,24.00
2018-05-29T05:38:05.517Z,24.00
2018-05-29T05:39:05.204Z,24.10
2018-05-29T05:40:06.042Z,24.10
2018-05-29T05:41:05.543Z,24.10
2018-05-29T05:42:05.619Z,24.20
2018-05-29T05:43:08.228Z,24.30
2018-05-29T05:44:08.129Z,24.40
2018-05-29T05:45:05.763Z,24.40
2018-05-29T05:46:10.037Z,24.50
2018-05-29T05:47:05.616Z,24.50
2018-05-29T05:48:09.439Z,24.60
2018-05-29T05:49:10.275Z,24.60
2018-05-29T05:50:06.172Z,24.60
2018-05-29T05:51:06.224Z,24.70
2018-05-29T05:52:05.640Z,24.70
2018-05-29T05:53:05.393Z,24.80
2018-05-29T05:54:08.137Z,25.00
2018-05-29T05:55:10.737Z,25.10
2018-05-29T05:56:05.632Z,25.10
2018-05-29T05:57:05.267Z,25.10
2018-05-29T05:58:05.689Z,25.20
2018-05-29T05:59:08.556Z,25.20
2018-05-29T06:00:07.976Z,25.30
2018-05-29T06:01:05.809Z,25.30
2018-05-29T06:02:05.565Z,25.30
2018-05-29T06:03:05.825Z,25.40
2018-05-29T06:04:05.779Z,25.40
2018-05-29T06:05:05.815Z,25.40
2018-05-29T06:06:11.019Z,25.60
2018-05-29T06:07:05.951Z,25.60
2018-05-29T06:08:05.974Z,25.80
2018-05-29T06:09:06.161Z,25.90
2018-05-29T06:10:05.489Z,25.90
2018-05-29T06:11:05.433Z,26.10
2018-05-29T06:12:09.772Z,26.30
2018-05-29T06:13:12.893Z,26.30
2018-05-29T06:14:09.209Z,26.40
2018-05-29T06:15:05.744Z,26.40
2018-05-29T06:16:11.368Z,26.60
2018-05-29T06:17:05.924Z,26.50
2018-05-29T06:18:05.570Z,26.70
2018-05-29T06:19:05.532Z,26.80
2018-05-29T06:20:10.724Z,26.90
2018-05-29T06:21:05.425Z,26.90
2018-05-29T06:22:08.635Z,27.00
2018-05-29T06:23:05.912Z,27.00
2018-05-29T06:24:05.698Z,27.00
2018-05-29T06:25:05.739Z,27.00
2018-05-29T06:26:05.663Z,27.10
2018-05-29T06:27:08.024Z,27.20
2018-05-29T06:28:05.564Z,27.20
2018-05-29T06:29:11.191Z,27.20
2018-05-29T06:30:05.333Z,27.30
2018-05-29T06:31:05.765Z,27.30
2018-05-29T06:32:10.442Z,27.50
2018-05-29T06:33:05.981Z,27.50
2018-05-29T06:34:08.261Z,27.70
2018-05-29T06:35:10.832Z,27.70
2018-05-29T06:36:05.931Z,27.70
2018-05-29T06:37:05.441Z,27.70
2018-05-29T06:38:09.739Z,27.80
2018-05-29T06:39:05.611Z,27.80
2018-05-29T06:40:08.792Z,27.80
2018-05-29T06:41:05.451Z,27.80
2018-05-29T06:42:08.531Z,27.80
2018-05-29T06:43:05.996Z,27.80
2018-05-29T06:44:06.050Z,27.80
2018-05-29T06:45:10.853Z,27.80
2018-05-29T06:46:05.535Z,27.80
2018-05-29T06:47:11.139Z,27.80
2018-05-29T06:48:05.452Z,27.90
2018-05-29T06:49:08.952Z,27.90
2018-05-29T06:50:05.587Z,27.90
2018-05-29T06:51:10.914Z,27.90
2018-05-29T06:52:06.042Z,27.90
2018-05-29T06:53:08.455Z,27.90
2018-05-29T06:54:06.200Z,27.90
2018-05-29T06:55:05.517Z,27.90
2018-05-29T06:56:05.193Z,28.00
2018-05-29T06:57:08.617Z,28.00
2018-05-29T06:58:06.201Z,27.90
2018-05-29T06:59:06.078Z,28.00
2018-05-29T07:00:10.582Z,28.00
2018-05-29T07:01:06.138Z,28.10
2018-05-29T07:02:07.736Z,28.10
2018-05-29T07:03:07.765Z,28.10
2018-05-29T07:04:05.272Z,28.10
2018-05-29T07:05:05.939Z,28.10
2018-05-29T07:06:06.423Z,28.20
2018-05-29T07:07:07.754Z,28.20
2018-05-29T07:08:05.469Z,28.20
2018-05-29T07:09:07.883Z,28.20
2018-05-29T07:10:10.690Z,28.20
2018-05-29T07:11:05.404Z,28.10
2018-05-29T07:12:05.800Z,28.20
2018-05-29T07:13:05.797Z,28.10
2018-05-29T07:14:06.309Z,28.10
2018-05-29T07:15:05.494Z,28.20
2018-05-29T07:16:05.382Z,28.20
2018-05-29T07:17:05.963Z,28.30
2018-05-29T07:18:05.296Z,28.30
2018-05-29T07:19:05.292Z,28.40
2018-05-29T07:20:05.899Z,28.40
2018-05-29T07:21:05.333Z,28.40
2018-05-29T07:22:05.435Z,28.50
2018-05-29T07:23:08.066Z,28.50
2018-05-29T07:24:10.608Z,28.50
2018-05-29T07:25:05.401Z,28.50
2018-05-29T07:26:05.633Z,28.50
2018-05-29T07:27:09.151Z,28.60
2018-05-29T07:28:08.174Z,28.60
2018-05-29T07:29:11.726Z,28.50
2018-05-29T07:30:05.389Z,28.60
2018-05-29T07:31:05.247Z,28.50
2018-05-29T07:32:05.299Z,28.50
2018-05-29T07:33:06.553Z,28.50
2018-05-29T07:34:05.578Z,28.40
2018-05-29T07:35:05.699Z,28.40
2018-05-29T07:36:08.436Z,28.30
2018-05-29T07:37:11.124Z,28.20
2018-05-29T07:38:05.613Z,28.20
2018-05-29T07:39:05.945Z,28.20
2018-05-29T07:40:08.257Z,28.20
2018-05-29T07:41:10.974Z,28.10
2018-05-29T07:42:07.913Z,28.10
2018-05-29T07:43:09.353Z,28.20
2018-05-29T07:44:05.843Z,28.10
2018-05-29T07:45:08.331Z,28.10
2018-05-29T07:46:08.661Z,28.20
2018-05-29T07:47:07.839Z,28.20
2018-05-29T07:48:10.416Z,28.20
2018-05-29T07:49:09.025Z,28.30
2018-05-29T07:50:08.102Z,28.40
2018-05-29T07:51:05.587Z,28.30
2018-05-29T07:52:05.510Z,28.40
2018-05-29T07:53:06.519Z,28.30
2018-05-29T07:54:06.001Z,28.30
2018-05-29T07:55:05.893Z,28.20
2018-05-29T07:56:08.594Z,28.30
2018-05-29T07:57:08.318Z,28.30
2018-05-29T07:58:05.911Z,28.30
2018-05-29T07:59:08.373Z,28.30
2018-05-29T08:00:08.016Z,28.20
2018-05-29T08:01:06.253Z,28.20
2018-05-29T08:02:05.859Z,28.20
2018-05-29T08:03:09.180Z,28.20
2018-05-29T08:04:08.330Z,28.20
2018-05-29T08:05:06.022Z,28.20
2018-05-29T08:06:06.059Z,28.20
2018-05-29T08:07:06.250Z,28.20
2018-05-29T08:08:05.156Z,28.20
2018-05-29T08:09:08.916Z,28.20
2018-05-29T08:10:05.388Z,28.10
2018-05-29T08:11:05.624Z,28.20
2018-05-29T08:12:09.884Z,28.20
2018-05-29T08:13:06.613Z,28.10
2018-05-29T08:14:08.217Z,28.20
2018-05-29T08:15:05.767Z,28.20
2018-05-29T08:16:05.322Z,28.20
2018-05-29T08:17:06.109Z,28.20
2018-05-29T08:18:07.842Z,28.20
2018-05-29T08:19:05.484Z,28.20
2018-05-29T08:20:10.790Z,28.10
2018-05-29T08:21:05.539Z,28.10
2018-05-29T08:22:06.228Z,28.00
2018-05-29T08:23:05.773Z,28.00
2018-05-29T08:24:05.950Z,28.10
2018-05-29T08:25:10.769Z,28.00
2018-05-29T08:26:05.501Z,28.00
2018-05-29T08:27:05.299Z,28.00
2018-05-29T08:28:05.500Z,28.10
2018-05-29T08:29:09.379Z,28.10
2018-05-29T08:30:11.022Z,28.00
2018-05-29T08:31:05.821Z,28.00
2018-05-29T08:32:06.163Z,28.00
2018-05-29T08:33:05.875Z,28.00
2018-05-29T08:34:06.138Z,28.00
2018-05-29T08:35:05.823Z,28.00
2018-05-29T08:36:09.165Z,28.00
2018-05-29T08:37:05.602Z,28.00
2018-05-29T08:38:08.818Z,28.00
2018-05-29T08:39:05.377Z,27.90
2018-05-29T08:40:05.805Z,27.90
2018-05-29T08:41:05.834Z,27.90
2018-05-29T08:42:08.605Z,27.80
2018-05-29T08:43:06.173Z,27.80
2018-05-29T08:44:05.863Z,27.80
2018-05-29T08:45:05.996Z,27.80
2018-05-29T08:46:06.106Z,27.80
2018-05-29T08:47:05.233Z,27.90
2018-05-29T08:48:11.245Z,27.90
2018-05-29T08:49:10.354Z,27.90
2018-05-29T08:50:05.789Z,27.90
2018-05-29T08:51:11.160Z,27.90
2018-05-29T08:52:05.230Z,28.00
2018-05-29T08:53:05.143Z,28.10
2018-05-29T08:54:06.031Z,28.10
2018-05-29T08:55:05.806Z,28.10
2018-05-29T08:56:06.248Z,28.10
2018-05-29T08:57:08.679Z,28.20
2018-05-29T08:58:08.251Z,28.10
2018-05-29T08:59:10.877Z,28.20
2018-05-29T09:00:05.703Z,28.20
2018-05-29T09:01:06.586Z,28.20
2018-05-29T09:02:05.315Z,28.20
2018-05-29T09:03:10.858Z,28.10
2018-05-29T09:04:05.343Z,28.10
2018-05-29T09:05:06.229Z,28.10
2018-05-29T09:06:05.752Z,28.00
2018-05-29T09:07:09.855Z,28.00
2018-05-29T09:08:05.438Z,28.00
2018-05-29T09:09:05.848Z,28.00
2018-05-29T09:10:05.431Z,28.00
2018-05-29T09:11:05.605Z,28.00
2018-05-29T09:12:10.880Z,28.00
2018-05-29T09:13:05.374Z,28.00
2018-05-29T09:14:06.269Z,28.00
2018-05-29T09:15:05.557Z,28.00
2018-05-29T09:16:05.200Z,28.00
2018-05-29T09:17:07.869Z,28.10
2018-05-29T09:18:05.883Z,28.00
2018-05-29T09:19:05.409Z,28.10
2018-05-29T09:20:05.738Z,28.10
2018-05-29T09:21:07.983Z,28.20
2018-05-29T09:22:05.369Z,28.20
2018-05-29T09:23:08.922Z,28.20
2018-05-29T09:24:05.380Z,28.20
2018-05-29T09:25:05.666Z,28.20
2018-05-29T09:26:05.975Z,28.20
2018-05-29T09:27:05.455Z,28.20
2018-05-29T09:28:05.267Z,28.20
2018-05-29T09:29:05.869Z,28.20
2018-05-29T09:30:05.420Z,28.30
2018-05-29T09:31:06.058Z,28.20
2018-05-29T09:32:05.486Z,28.20
2018-05-29T09:33:05.512Z,28.20
2018-05-29T09:34:05.269Z,28.20
2018-05-29T09:35:10.344Z,28.20
2018-05-29T09:36:06.855Z,28.30
2018-05-29T09:37:11.205Z,28.40
2018-05-29T09:38:05.737Z,28.40
2018-05-29T09:39:09.512Z,28.40
2018-05-29T09:40:06.014Z,28.40
2018-05-29T09:41:08.906Z,28.50
2018-05-29T09:42:05.517Z,28.50
2018-05-29T09:43:06.009Z,28.50
2018-05-29T09:44:06.534Z,28.50
2018-05-29T09:45:09.747Z,28.60
2018-05-29T09:46:07.816Z,28.60
2018-05-29T09:47:05.668Z,28.60
2018-05-29T09:48:05.739Z,28.70
2018-05-29T09:49:05.301Z,28.70
2018-05-29T09:50:06.048Z,28.60
2018-05-29T09:51:06.082Z,28.60
2018-05-29T09:52:05.531Z,28.60
2018-05-29T09:53:05.510Z,28.60
2018-05-29T09:54:06.027Z,28.70
2018-05-29T09:55:10.545Z,28.60
2018-05-29T09:56:08.900Z,28.70
2018-05-29T09:57:09.948Z,28.70
2018-05-29T09:58:08.387Z,28.70
2018-05-29T09:59:09.530Z,28.70
2018-05-29T10:00:06.416Z,28.70
2018-05-29T10:01:08.556Z,28.80
2018-05-29T10:02:06.163Z,28.80
2018-05-29T10:03:09.767Z,28.80
2018-05-29T10:04:05.334Z,28.80
2018-05-29T10:05:08.490Z,28.90
2018-05-29T10:06:06.160Z,28.90
2018-05-29T10:07:08.422Z,28.90
2018-05-29T10:08:05.365Z,28.80
2018-05-29T10:09:06.220Z,28.90
2018-05-29T10:10:08.199Z,29.00
2018-05-29T10:11:10.053Z,29.00
2018-05-29T10:12:05.695Z,29.00
2018-05-29T10:13:05.667Z,29.10
2018-05-29T10:14:10.616Z,29.20
2018-05-29T10:15:05.792Z,29.10
2018-05-29T10:16:06.022Z,29.20
2018-05-29T10:17:12.888Z,29.20
2018-05-29T10:18:07.941Z,29.20
2018-05-29T10:19:08.192Z,29.20
2018-05-29T10:20:06.640Z,29.20
2018-05-29T10:21:05.484Z,29.20
2018-05-29T10:22:08.529Z,29.20
2018-05-29T10:23:06.076Z,29.20
2018-05-29T10:24:06.047Z,29.20
2018-05-29T10:25:05.932Z,29.20
2018-05-29T10:26:06.385Z,29.30
2018-05-29T10:27:06.101Z,29.30
2018-05-29T10:28:11.487Z,29.40
2018-05-29T10:29:06.172Z,29.30
2018-05-29T10:30:10.324Z,29.40
2018-05-29T10:31:05.918Z,29.30
2018-05-29T10:32:05.367Z,29.30
2018-05-29T10:33:10.638Z,29.30
2018-05-29T10:34:06.070Z,29.30
2018-05-29T10:35:09.352Z,29.20
2018-05-29T10:36:11.269Z,29.20
2018-05-29T10:37:09.442Z,29.20
2018-05-29T10:38:11.057Z,29.20
2018-05-29T10:39:05.799Z,29.20
2018-05-29T10:40:05.642Z,29.20
2018-05-29T10:41:05.346Z,29.20
2018-05-29T10:42:06.250Z,29.30
2018-05-29T10:43:10.531Z,29.30
2018-05-29T10:44:06.243Z,29.30
2018-05-29T10:45:10.981Z,29.30
2018-05-29T10:46:05.741Z,29.30
2018-05-29T10:47:05.493Z,29.20
2018-05-29T10:48:05.725Z,29.20
2018-05-29T10:49:08.584Z,29.10
2018-05-29T10:50:09.332Z,29.10
2018-05-29T10:51:05.944Z,29.10
2018-05-29T10:52:05.355Z,29.10
2018-05-29T10:53:09.310Z,29.10
2018-05-29T10:54:05.210Z,29.10
2018-05-29T10:55:05.423Z,29.10
2018-05-29T10:56:06.261Z,29.10
2018-05-29T10:57:05.455Z,29.10
2018-05-29T10:58:06.138Z,29.00
2018-05-29T10:59:05.653Z,29.00
2018-05-29T11:00:05.730Z,29.00
2018-05-29T11:01:08.895Z,29.00
2018-05-29T11:02:10.790Z,29.10
2018-05-29T11:03:06.010Z,29.10
2018-05-29T11:04:07.801Z,29.30
2018-05-29T11:05:05.364Z,29.20
2018-05-29T11:06:08.015Z,29.40
2018-05-29T11:07:05.433Z,29.40
2018-05-29T11:08:07.906Z,29.50
2018-05-29T11:09:05.679Z,29.50
2018-05-29T11:10:05.270Z,29.60
2018-05-29T11:11:08.488Z,29.70
2018-05-29T11:12:05.652Z,29.70
2018-05-29T11:13:05.323Z,29.70
2018-05-29T11:14:10.008Z,29.60
2018-05-29T11:15:06.266Z,29.60
2018-05-29T11:16:10.312Z,29.60
2018-05-29T11:17:07.979Z,29.50
2018-05-29T11:18:09.838Z,29.50
2018-05-29T11:19:05.911Z,29.50
2018-05-29T11:20:06.062Z,29.50
2018-05-29T11:21:10.871Z,29.40
2018-05-29T11:22:07.937Z,29.30
2018-05-29T11:23:05.388Z,29.30
2018-05-29T11:24:10.338Z,29.30
2018-05-29T11:25:10.365Z,29.30
2018-05-29T11:26:10.364Z,29.30
2018-05-29T11:27:10.395Z,29.30
2018-05-29T11:28:05.967Z,29.30
2018-05-29T11:29:10.744Z,29.40
2018-05-29T11:30:07.809Z,29.50
2018-05-29T11:31:05.400Z,29.50
2018-05-29T11:32:06.120Z,29.40
2018-05-29T11:33:05.641Z,29.50
2018-05-29T11:34:05.393Z,29.40
2018-05-29T11:35:05.369Z,29.40
2018-05-29T11:36:09.880Z,29.30
2018-05-29T11:37:05.962Z,29.40
2018-05-29T11:38:08.060Z,29.30
2018-05-29T11:39:05.969Z,29.30
2018-05-29T11:40:05.309Z,29.20
2018-05-29T11:41:05.471Z,29.30
2018-05-29T11:42:07.776Z,29.30
2018-05-29T11:43:10.329Z,29.40
2018-05-29T11:44:09.623Z,29.40
2018-05-29T11:45:05.424Z,29.40
2018-05-29T11:46:05.192Z,29.40
2018-05-29T11:47:05.830Z,29.40
2018-05-29T11:48:09.223Z,29.40
2018-05-29T11:49:05.714Z,29.40
2018-05-29T11:50:09.140Z,29.30
2018-05-29T11:51:05.702Z,29.30
2018-05-29T11:52:11.235Z,29.30
2018-05-29T11:53:07.935Z,29.20
2018-05-29T11:54:05.902Z,29.10
2018-05-29T11:55:08.039Z,29.10
2018-05-29T11:56:05.718Z,29.20
2018-05-29T11:57:10.746Z,29.10
2018-05-29T11:58:05.321Z,29.20
2018-05-29T11:59:05.384Z,29.20
2018-05-29T12:00:05.359Z,29.10
2018-05-29T12:01:05.758Z,29.20
2018-05-29T12:02:08.385Z,29.20
2018-05-29T12:03:06.048Z,29.10
2018-05-29T12:04:05.556Z,29.20
2018-05-29T12:05:05.448Z,29.20
2018-05-29T12:06:05.245Z,29.30
2018-05-29T12:07:10.842Z,29.30
2018-05-29T12:08:05.574Z,29.40
2018-05-29T12:09:08.725Z,29.40
2018-05-29T12:10:05.636Z,29.40
2018-05-29T12:11:08.763Z,29.50
2018-05-29T12:12:05.455Z,29.50
2018-05-29T12:13:08.341Z,29.50
2018-05-29T12:14:05.822Z,29.50
2018-05-29T12:15:05.471Z,29.50
2018-05-29T12:16:06.184Z,29.50
2018-05-29T12:17:05.334Z,29.50
2018-05-29T12:18:08.465Z,29.50
2018-05-29T12:19:06.393Z,29.50
2018-05-29T12:20:05.809Z,29.60
2018-05-29T12:21:08.222Z,29.70
2018-05-29T12:22:05.784Z,29.70
2018-05-29T12:23:06.216Z,29.70
2018-05-29T12:24:05.937Z,29.70
2018-05-29T12:25:11.142Z,29.80
2018-05-29T12:26:07.723Z,29.90
2018-05-29T12:27:05.338Z,29.90
2018-05-29T12:28:05.238Z,29.90
2018-05-29T12:29:10.995Z,30.00
2018-05-29T12:30:05.920Z,30.00
2018-05-29T12:31:05.920Z,30.10
2018-05-29T12:32:05.142Z,30.10
2018-05-29T12:33:05.685Z,30.10
2018-05-29T12:34:06.231Z,30.10
2018-05-29T12:35:05.907Z,30.20
2018-05-29T12:36:07.888Z,30.20
2018-05-29T12:37:05.355Z,30.20
2018-05-29T12:38:08.559Z,30.30
2018-05-29T12:39:05.441Z,30.20
2018-05-29T12:40:05.738Z,30.20
2018-05-29T12:41:05.876Z,30.10
2018-05-29T12:42:05.910Z,30.10
2018-05-29T12:43:06.103Z,30.00
2018-05-29T12:44:05.404Z,30.00
2018-05-29T12:45:06.140Z,30.00
2018-05-29T12:46:06.869Z,30.00
2018-05-29T12:47:09.021Z,30.10
2018-05-29T12:48:07.769Z,30.00
2018-05-29T12:49:10.382Z,30.00
2018-05-29T12:50:06.036Z,30.00
2018-05-29T12:51:05.860Z,30.00
2018-05-29T12:52:06.014Z,29.90